Meteo Giornale » Osservazioni meteo Svizzera » Ginevra-Cointrin

ore: 04:50 - Osservazioni Meteo Ginevra-Cointrin
Lat. 46° 15' N Lon. 6° 8' E Alt. 420 metri s.l.m.

sereno Europe/Zurich

3 °C

Sereno

Temp. 24 Ore

-2 °C

7 °C

Nord/Nord-Est

14.8 Km/h

Dew point -3 °C

Umidità 64 %

Visibilità  10 Km

Il sole sorge alle ore 08:09

Il sole tramonta alle ore 17:22

Data e Ora Cielo e Fenomeni T °C DP °C Um. % Pres. hPa Vis. km Vento km/h
Oggi h: 04:50 sereno Sereno 3 -3 64 1028 10 N/NE 14.8
Oggi h: 04:20 sereno Sereno 2 -4 64 1028 10 N 9.3
Oggi h: 03:50 sereno Sereno 1 -4 69 1028 10 N 5.5
Oggi h: 03:20 sereno Sereno 1 -3 74 1028 10 NE 9.3
Oggi h: 02:50 sereno Sereno 2 -3 69 1028 10 N/NE 7.4
Oggi h: 02:20 poco_nuvoloso Poco Nuvoloso 3 -3 64 1027 10 N/NE 13
Oggi h: 01:50 nuvoloso Nuvoloso 2 -3 69 1027 10 N/NE 13
Oggi h: 01:20 nuvoloso Nuvoloso 1 -3 74 1027 10 N/NE 9.3
Oggi h: 00:50 poco_nuvoloso Poco Nuvoloso -1 -4 80 1026 10 N 1.8
Oggi h: 00:20 sereno Sereno 0 -3 80 1026 10 N 3.7
Ieri h: 23:50 sereno Sereno 2 -3 69 1026 10 N 3.7
Ieri h: 23:20 sereno Sereno 1 -3 74 1026 10 N/NE 11.1
Ieri h: 22:50 sereno Sereno -2 -3 92 1026 10 N 1.8
Ieri h: 22:20 sereno Sereno -2 -4 86 1026 10 N 0
Ieri h: 21:50 sereno Sereno -1 -3 86 1026 10 N 1.8
Ieri h: 21:20 sereno Sereno -0 -3 80 1026 10 N 3.7
Ieri h: 20:50 sereno Sereno -1 -2 92 1026 10 N 3.7
Ieri h: 20:20 sereno Sereno -1 -3 86 1026 10 N 1.8
Ieri h: 19:50 sereno Sereno 0 -2 86 1026 10 N 1.8
Ieri h: 19:20 sereno Sereno 1 -1 86 1026 10 N 1.8
Ieri h: 18:20 sereno Sereno 2 -1 80 1026 10 N 3.7
Ieri h: 17:50 sereno Sereno 3 -2 69 1026 10 N 5.5
Ieri h: 16:50 poco_nuvoloso Poco Nuvoloso 6 -2 56 1026 10 N 5.5
Ieri h: 16:20 poco_nuvoloso Poco Nuvoloso 6 -2 56 1026 10 N/NE 9.3
Ieri h: 15:50 poco_nuvoloso Poco Nuvoloso 7 -2 52 1026 10 NE 9.3
Ieri h: 15:20 poco_nuvoloso Poco Nuvoloso 7 -1 56 1026 10 NE 11.1
Ieri h: 14:50 poco_nuvoloso Poco Nuvoloso 7 -1 56 1026 10 E/NE 9.3
Ieri h: 14:20 poco_nuvoloso Poco Nuvoloso 7 -2 52 1027 10 N 3.7
Ieri h: 13:50 poco_nuvoloso Poco Nuvoloso 7 -1 56 1027 10 N 5.5
Ieri h: 13:20 poco_nuvoloso Poco Nuvoloso 7 -1 56 1027 10 N 1.8
Ieri h: 12:50 poco_nuvoloso Poco Nuvoloso 6 1 70 1028 10 N 3.7
Ieri h: 12:20 poco_nuvoloso Poco Nuvoloso 7 1 65 1028 10 N 3.7
Ieri h: 11:50 poco_nuvoloso Poco Nuvoloso 6 1 70 1028 10 N 1.8
Ieri h: 11:20 poco_nuvoloso Poco Nuvoloso 5 1 75 1029 10 S/SO 7.4
Ieri h: 10:50 poco_nuvoloso Poco Nuvoloso 4 1 80 1029 10 N 5.5
Ieri h: 10:20 poco_nuvoloso Poco Nuvoloso 4 2 86 1029 10 N 5.5
Ieri h: 09:50 sereno Sereno 2 2 100 1029 10 N 5.5
Ieri h: 09:20 sereno Sereno 0 -0 100 1028 10 N 3.7
Ieri h: 08:50 sereno Sereno -0 -1 92 1029 10 N 3.7
Ieri h: 08:20 poco_nuvoloso Poco Nuvoloso -0 -1 92 1028 10 N 3.7
Ieri h: 07:50 poco_nuvoloso Poco Nuvoloso -1 -1 100 1028 10 N 1.8
Ieri h: 07:20 nebbia Nebbia a Strati -0 -1 92 1028 10 N 3.7
Ieri h: 06:50 poco_nuvoloso Poco Nuvoloso -0 -1 92 1028 10 N 1.8
Ieri h: 06:20 poco_nuvoloso Poco Nuvoloso -0 -1 92 1028 10 N 3.7
Ieri h: 04:50 sereno Sereno 1 0 93 1028 10 N 5.5